Skip Navigation Links Skip Navigation Links

Current Weather

DuPage County, West Chicago, Ill.

For information only: do not use for flight planning or navigation.
Latest weather
Observation time Saturday, August 24, 2019 11:52 PM CDT
Local time Sunday, August 25, 2019 12:09 AM CDT
Flight conditions Visual Meteorological Conditions
Winds
Wind direction East-Southeast (110°)
Wind speed 5 mph
Visibility 10 mi.
Sky condition
Ceiling unlimited
Sky clear
Temperature 63°F
Dewpoint 53°F
Altimeter 30.19 in.Hg
Derived measurements
Relative humidity 70%
Density altitude 904 ft.
Sea-level pressure 30.18 in.Hg
Remarks
Automated weather observing station with precipitation discriminator.
METAR KDPA 250452Z 11004KT 10SM CLR 17/12 A3019 RMK AO2 SLP220 T01720117

Settings

Location code

InnerDrive.Weather 4.0.6770.0 Release CLR 4.0.30319.42000
Copyright ©2018 Inner Drive Technology. All rights reserved. Portions Copyright ©1986-2018 David Braverman.

Find weather

Site navigation


Skip Navigation Links

Place info

Page info

PayPal - The safer, easier way to pay online!

Return home.

Copyright ©2019 Inner Drive Technology. Purveyors of fine, hand-crafted computer software. Page printed 2019-08-25T05:09:59 UTC.